createdAt,value
2019-05-21T00:01:03.207Z,94037.71
2019-05-21T00:03:34.295Z,94041.47
2019-05-21T00:06:05.670Z,94047.05
2019-05-21T00:08:36.724Z,94053.34
2019-05-21T00:11:08.275Z,94050.63
2019-05-21T00:13:39.340Z,94051.89
2019-05-21T00:16:10.388Z,94058.44
2019-05-21T00:18:41.440Z,94054.16
2019-05-21T00:21:12.630Z,94058.63
2019-05-21T00:23:43.731Z,94057.02
2019-05-21T00:26:14.865Z,94055.28
2019-05-21T00:29:40.485Z,94053.61
2019-05-21T00:33:06.254Z,94060.80
2019-05-21T00:36:32.788Z,94056.02
2019-05-21T00:39:58.031Z,94064.53
2019-05-21T00:42:33.816Z,94070.86
2019-05-21T00:45:07.971Z,94072.66
2019-05-21T00:47:40.461Z,94076.20
2019-05-21T00:50:12.935Z,94076.56
2019-05-21T00:52:44.083Z,94072.34
2019-05-21T00:55:15.299Z,94071.53
2019-05-21T00:57:46.464Z,94072.28
2019-05-21T01:00:17.795Z,94076.92
2019-05-21T01:02:48.953Z,94078.22
2019-05-21T01:05:20.038Z,94082.72
2019-05-21T01:07:51.180Z,94084.67
2019-05-21T01:10:22.398Z,94084.62
2019-05-21T01:12:53.460Z,94087.23
2019-05-21T01:15:24.704Z,94087.58
2019-05-21T01:17:55.822Z,94081.61
2019-05-21T01:20:27.193Z,94091.95
2019-05-21T01:22:58.357Z,94083.50
2019-05-21T01:25:29.487Z,94093.21
2019-05-21T01:28:00.636Z,94090.66
2019-05-21T01:30:32.835Z,94094.16
2019-05-21T01:33:03.993Z,94098.07
2019-05-21T01:35:35.081Z,94097.99
2019-05-21T01:38:07.371Z,94096.17
2019-05-21T01:40:38.474Z,94095.28
2019-05-21T01:43:09.730Z,94100.08
2019-05-21T01:45:41.128Z,94102.59
2019-05-21T01:48:12.422Z,94104.07
2019-05-21T01:50:43.571Z,94099.55
2019-05-21T01:53:14.751Z,94094.80
2019-05-21T01:55:45.952Z,94100.53
2019-05-21T01:58:17.284Z,94096.33
2019-05-21T02:00:48.417Z,94105.54
2019-05-21T02:03:19.694Z,94111.92
2019-05-21T02:05:52.069Z,94114.36
2019-05-21T02:08:23.209Z,94111.70
2019-05-21T02:10:54.929Z,94115.61
2019-05-21T02:13:26.046Z,94108.84
2019-05-21T02:15:57.192Z,94108.47
2019-05-21T02:18:28.382Z,94117.16
2019-05-21T02:20:59.733Z,94119.29
2019-05-21T02:23:31.001Z,94116.36
2019-05-21T02:26:02.043Z,94115.16
2019-05-21T02:28:34.264Z,94122.22
2019-05-21T02:31:05.746Z,94119.72
2019-05-21T02:33:36.860Z,94128.66
2019-05-21T02:36:08.164Z,94130.66
2019-05-21T02:38:39.267Z,94137.08
2019-05-21T02:41:10.386Z,94153.20
2019-05-21T02:43:41.467Z,94148.43
2019-05-21T02:46:12.669Z,94156.29
2019-05-21T02:48:43.868Z,94163.97
2019-05-21T02:51:15.062Z,94162.16
2019-05-21T02:53:46.192Z,94171.88
2019-05-21T02:56:17.384Z,94172.34
2019-05-21T02:58:48.403Z,94168.67
2019-05-21T03:01:35.995Z,94168.02
2019-05-21T03:04:07.369Z,94178.00
2019-05-21T03:06:38.908Z,94182.30
2019-05-21T03:09:10.079Z,94180.42
2019-05-21T03:11:41.373Z,94181.56
2019-05-21T03:14:12.602Z,94179.73
2019-05-21T03:16:43.805Z,94190.80
2019-05-21T03:19:16.641Z,94187.59
2019-05-21T03:21:48.035Z,94190.81
2019-05-21T03:24:19.842Z,94196.97
2019-05-21T03:26:50.877Z,94199.25
2019-05-21T03:29:21.980Z,94200.52
2019-05-21T03:31:53.575Z,94202.38
2019-05-21T03:34:24.606Z,94202.37
2019-05-21T03:36:55.729Z,94190.38
2019-05-21T03:39:26.897Z,94196.88
2019-05-21T03:41:58.094Z,94203.67
2019-05-21T03:44:29.279Z,94205.86
2019-05-21T03:47:00.370Z,94210.91
2019-05-21T03:49:31.587Z,94215.98
2019-05-21T03:52:02.751Z,94219.64
2019-05-21T03:54:33.922Z,94229.60
2019-05-21T03:57:05.046Z,94227.39
2019-05-21T03:59:36.202Z,94230.47
2019-05-21T04:02:07.372Z,94237.16
2019-05-21T04:04:38.653Z,94236.20
2019-05-21T04:07:09.798Z,94226.12
2019-05-21T04:09:41.211Z,94238.05
2019-05-21T04:12:12.316Z,94237.95
2019-05-21T04:14:47.622Z,94236.23
2019-05-21T04:17:36.271Z,94242.56
2019-05-21T04:20:07.829Z,94240.50
2019-05-21T04:22:52.636Z,94249.76
2019-05-21T04:25:24.812Z,94245.23
2019-05-21T04:27:55.930Z,94248.91
2019-05-21T04:30:27.304Z,94247.16
2019-05-21T04:32:58.489Z,94252.19
2019-05-21T04:35:29.721Z,94255.93
2019-05-21T04:38:00.865Z,94251.88
2019-05-21T04:40:32.229Z,94265.66
2019-05-21T04:43:03.369Z,94261.47
2019-05-21T04:45:34.488Z,94265.38
2019-05-21T04:48:05.703Z,94266.20
2019-05-21T04:50:36.813Z,94279.88
2019-05-21T04:53:08.029Z,94270.05
2019-05-21T04:55:39.144Z,94277.41
2019-05-21T04:58:10.311Z,94275.97
2019-05-21T05:00:41.750Z,94277.41
2019-05-21T05:03:13.223Z,94279.55
2019-05-21T05:05:44.509Z,94274.97
2019-05-21T05:08:15.729Z,94274.66
2019-05-21T05:10:49.298Z,94277.74
2019-05-21T05:13:19.873Z,94281.32
2019-05-21T05:15:51.010Z,94279.99
2019-05-21T05:18:22.091Z,94285.08
2019-05-21T05:20:53.280Z,94286.06
2019-05-21T05:23:24.453Z,94292.61
2019-05-21T05:25:55.648Z,94290.02
2019-05-21T05:28:26.709Z,94285.75
2019-05-21T05:30:57.850Z,94298.98
2019-05-21T05:33:28.963Z,94300.04
2019-05-21T05:36:00.124Z,94307.22
2019-05-21T05:38:31.224Z,94298.43
2019-05-21T05:41:02.496Z,94301.68
2019-05-21T05:43:33.884Z,94306.59
2019-05-21T05:46:05.344Z,94312.25
2019-05-21T05:48:41.892Z,94309.68
2019-05-21T05:51:13.265Z,94301.53
2019-05-21T05:53:59.472Z,94300.99
2019-05-21T05:56:31.150Z,94317.94
2019-05-21T05:59:02.337Z,94322.85
2019-05-21T06:01:34.730Z,94324.61
2019-05-21T06:04:05.915Z,94326.70
2019-05-21T06:06:38.330Z,94336.50
2019-05-21T06:09:09.620Z,94330.47
2019-05-21T06:11:40.793Z,94332.92
2019-05-21T06:14:11.884Z,94333.60
2019-05-21T06:16:42.998Z,94337.80
2019-05-21T06:19:14.434Z,94347.83
2019-05-21T06:21:45.515Z,94345.87
2019-05-21T06:24:16.699Z,94342.16
2019-05-21T06:26:47.907Z,94347.52
2019-05-21T06:29:19.145Z,94353.81
2019-05-21T06:31:50.803Z,94362.16
2019-05-21T06:34:21.973Z,94360.53
2019-05-21T06:36:53.192Z,94363.51
2019-05-21T06:39:24.403Z,94367.56
2019-05-21T06:41:55.611Z,94368.54
2019-05-21T06:44:26.873Z,94377.93
2019-05-21T06:46:59.259Z,94378.66
2019-05-21T06:49:30.362Z,94376.55
2019-05-21T06:52:01.638Z,94373.75
2019-05-21T06:54:32.751Z,94390.55
2019-05-21T06:57:04.075Z,94390.72
2019-05-21T06:59:35.175Z,94390.22
2019-05-21T07:02:06.304Z,94390.66
2019-05-21T07:04:37.337Z,94394.09
2019-05-21T07:07:08.445Z,94399.31
2019-05-21T07:09:39.601Z,94394.62
2019-05-21T07:12:10.818Z,94396.09
2019-05-21T07:14:42.015Z,94395.59
2019-05-21T07:17:13.259Z,94392.47
2019-05-21T07:19:44.506Z,94398.02
2019-05-21T07:22:15.600Z,94407.30
2019-05-21T07:24:46.672Z,94419.99
2019-05-21T07:27:17.758Z,94408.25
2019-05-21T07:29:48.986Z,94403.42
2019-05-21T07:32:20.192Z,94416.59
2019-05-21T07:34:51.323Z,94425.56
2019-05-21T07:37:22.472Z,94406.52
2019-05-21T07:39:53.714Z,94418.72
2019-05-21T07:42:24.911Z,94438.56
2019-05-21T07:44:56.103Z,94432.22
2019-05-21T07:47:27.250Z,94435.16
2019-05-21T07:49:58.435Z,94441.18
2019-05-21T07:52:30.917Z,94447.98
2019-05-21T07:55:02.116Z,94450.77
2019-05-21T07:57:33.519Z,94447.83
2019-05-21T08:00:05.834Z,94449.16
2019-05-21T08:02:37.190Z,94457.09
2019-05-21T08:05:08.531Z,94448.81
2019-05-21T08:07:39.780Z,94449.92
2019-05-21T08:10:11.637Z,94444.44
2019-05-21T08:12:42.774Z,94454.17
2019-05-21T08:15:14.492Z,94461.84
2019-05-21T08:17:45.628Z,94458.70
2019-05-21T08:20:17.621Z,94464.24
2019-05-21T08:22:48.855Z,94467.21
2019-05-21T08:25:19.985Z,94460.05
2019-05-21T08:27:51.334Z,94474.84
2019-05-21T08:30:22.612Z,94475.97
2019-05-21T08:32:54.691Z,94484.61
2019-05-21T08:35:25.981Z,94482.18
2019-05-21T08:37:57.107Z,94484.77
2019-05-21T08:40:28.193Z,94491.43
2019-05-21T08:42:59.376Z,94490.78
2019-05-21T08:45:30.714Z,94497.60
2019-05-21T08:48:01.915Z,94496.81
2019-05-21T08:50:33.190Z,94487.67
2019-05-21T08:53:04.425Z,94503.31
2019-05-21T08:55:35.634Z,94492.22
2019-05-21T08:58:07.872Z,94500.55
2019-05-21T09:00:40.298Z,94495.16
2019-05-21T09:03:11.592Z,94492.37
2019-05-21T09:05:42.775Z,94494.31
2019-05-21T09:08:14.023Z,94497.09
2019-05-21T09:10:45.242Z,94500.84
2019-05-21T09:13:18.018Z,94498.55
2019-05-21T09:15:49.426Z,94501.16
2019-05-21T09:18:20.658Z,94496.80
2019-05-21T09:20:51.957Z,94491.70
2019-05-21T09:23:23.120Z,94493.83
2019-05-21T09:25:54.315Z,94496.58
2019-05-21T09:28:25.791Z,94495.66
2019-05-21T09:30:56.955Z,94498.42
2019-05-21T09:33:28.142Z,94494.66
2019-05-21T09:35:59.256Z,94488.92
2019-05-21T09:38:30.404Z,94497.22
2019-05-21T09:41:01.659Z,94491.34
2019-05-21T09:43:33.082Z,94506.19
2019-05-21T09:46:04.285Z,94500.64
2019-05-21T09:48:35.431Z,94504.69
2019-05-21T09:51:06.738Z,94502.45
2019-05-21T09:53:38.005Z,94503.72
2019-05-21T09:56:26.921Z,94501.41
2019-05-21T09:58:59.793Z,94509.09
2019-05-21T10:01:38.038Z,94513.48
2019-05-21T10:04:09.366Z,94504.87
2019-05-21T10:06:40.481Z,94507.58
2019-05-21T10:09:16.374Z,94497.46
2019-05-21T10:11:47.520Z,94510.82
2019-05-21T10:14:18.781Z,94516.93
2019-05-21T10:16:50.058Z,94508.36
2019-05-21T10:19:21.321Z,94515.02
2019-05-21T10:21:52.493Z,94527.59
2019-05-21T10:24:23.694Z,94519.44
2019-05-21T10:26:54.882Z,94521.88
2019-05-21T10:29:26.079Z,94514.03
2019-05-21T10:31:57.311Z,94525.55
2019-05-21T10:34:28.501Z,94527.17
2019-05-21T10:36:59.612Z,94531.34
2019-05-21T10:39:31.067Z,94535.67
2019-05-21T10:42:02.300Z,94537.92
2019-05-21T10:44:33.429Z,94526.69
2019-05-21T10:47:04.693Z,94538.47
2019-05-21T10:49:35.809Z,94548.77
2019-05-21T10:52:07.112Z,94546.16
2019-05-21T10:54:38.512Z,94543.59
2019-05-21T10:57:10.749Z,94545.23
2019-05-21T10:59:42.016Z,94556.90
2019-05-21T11:02:23.209Z,94550.79
2019-05-21T11:05:04.218Z,94555.84
2019-05-21T11:07:35.550Z,94558.83
2019-05-21T11:10:08.261Z,94545.07
2019-05-21T11:12:39.701Z,94551.14
2019-05-21T11:15:11.331Z,94556.56
2019-05-21T11:17:53.779Z,94554.27
2019-05-21T11:20:16.516Z,94557.50
2019-05-21T11:22:47.688Z,94558.05
2019-05-21T11:25:19.246Z,94555.20
2019-05-21T11:27:50.510Z,94568.84
2019-05-21T11:30:21.738Z,94561.95
2019-05-21T11:32:52.956Z,94568.59
2019-05-21T11:35:24.219Z,94563.31
2019-05-21T11:37:55.412Z,94566.42
2019-05-21T11:40:27.420Z,94569.24
2019-05-21T11:42:58.622Z,94569.77
2019-05-21T11:45:32.776Z,94567.22
2019-05-21T11:48:02.814Z,94571.91
2019-05-21T11:50:33.949Z,94566.06
2019-05-21T11:53:05.082Z,94578.45
2019-05-21T11:55:36.206Z,94570.00
2019-05-21T11:58:07.341Z,94563.44
2019-05-21T12:00:38.497Z,94567.16
2019-05-21T12:03:09.916Z,94574.13
2019-05-21T12:05:41.212Z,94566.22
2019-05-21T12:08:12.408Z,94571.50
2019-05-21T12:10:43.735Z,94581.45
2019-05-21T12:13:14.913Z,94571.14
2019-05-21T12:15:46.017Z,94570.34
2019-05-21T12:18:17.200Z,94571.69
2019-05-21T12:20:48.434Z,94572.13
2019-05-21T12:23:19.450Z,94580.79
2019-05-21T12:25:50.688Z,94578.95
2019-05-21T12:28:21.696Z,94579.72
2019-05-21T12:30:52.839Z,94581.41
2019-05-21T12:33:24.116Z,94583.31
2019-05-21T12:35:55.248Z,94590.80
2019-05-21T12:38:26.300Z,94582.92
2019-05-21T12:40:57.551Z,94589.39
2019-05-21T12:43:28.673Z,94584.84
2019-05-21T12:45:59.887Z,94604.17
2019-05-21T12:48:31.023Z,94605.45
2019-05-21T12:51:02.219Z,94603.23
2019-05-21T12:53:33.248Z,94610.76
2019-05-21T12:56:04.568Z,94610.17
2019-05-21T12:58:35.758Z,94614.52
2019-05-21T13:01:06.946Z,94610.16
2019-05-21T13:03:38.063Z,94612.94
2019-05-21T13:06:09.586Z,94612.13
2019-05-21T13:08:40.615Z,94621.34
2019-05-21T13:11:12.947Z,94619.66
2019-05-21T13:13:44.170Z,94619.75
2019-05-21T13:16:15.441Z,94624.84
2019-05-21T13:18:46.608Z,94626.94
2019-05-21T13:21:17.823Z,94630.94
2019-05-21T13:23:50.138Z,94629.59
2019-05-21T13:26:21.633Z,94636.09
2019-05-21T13:28:52.841Z,94640.09
2019-05-21T13:31:24.039Z,94643.25
2019-05-21T13:33:55.221Z,94647.02
2019-05-21T13:36:26.419Z,94660.70
2019-05-21T13:38:57.600Z,94660.73
2019-05-21T13:41:28.884Z,94662.39
2019-05-21T13:44:00.034Z,94650.31
2019-05-21T13:46:31.231Z,94661.07
2019-05-21T13:49:02.437Z,94661.25
2019-05-21T13:51:33.682Z,94671.34
2019-05-21T13:54:04.858Z,94667.78
2019-05-21T13:56:35.976Z,94670.88
2019-05-21T13:59:07.252Z,94672.33
2019-05-21T14:01:41.349Z,94672.19
2019-05-21T14:04:11.588Z,94677.20
2019-05-21T14:06:42.772Z,94679.16
2019-05-21T14:09:13.952Z,94679.96
2019-05-21T14:11:45.209Z,94684.55
2019-05-21T14:14:16.496Z,94681.94
2019-05-21T14:16:47.523Z,94673.75
2019-05-21T14:19:18.701Z,94684.25
2019-05-21T14:21:49.957Z,94685.22
2019-05-21T14:24:21.113Z,94685.22
2019-05-21T14:26:52.274Z,94688.80
2019-05-21T14:29:23.428Z,94693.20
2019-05-21T14:31:54.587Z,94695.95
2019-05-21T14:34:25.733Z,94693.03
2019-05-21T14:36:56.892Z,94712.27
2019-05-21T14:39:28.135Z,94702.98
2019-05-21T14:41:59.349Z,94700.69
2019-05-21T14:44:30.412Z,94707.52
2019-05-21T14:47:01.757Z,94711.77
2019-05-21T14:49:32.943Z,94708.51
2019-05-21T14:52:05.844Z,94705.09
2019-05-21T14:54:36.942Z,94716.48
2019-05-21T14:57:12.536Z,94720.06
2019-05-21T14:59:43.758Z,94719.91
2019-05-21T15:02:14.979Z,94721.05
2019-05-21T15:04:46.354Z,94726.10
2019-05-21T15:07:17.744Z,94721.69
2019-05-21T15:09:53.197Z,94726.10
2019-05-21T15:12:21.869Z,94731.48
2019-05-21T15:14:53.406Z,94733.77
2019-05-21T15:17:24.917Z,94720.03
2019-05-21T15:19:57.696Z,94725.27
2019-05-21T15:22:28.745Z,94724.28
2019-05-21T15:24:59.849Z,94730.83
2019-05-21T15:27:31.010Z,94735.84
2019-05-21T15:30:02.212Z,94740.27
2019-05-21T15:32:33.787Z,94733.43
2019-05-21T15:35:05.457Z,94737.50
2019-05-21T15:37:36.657Z,94738.95
2019-05-21T15:40:08.954Z,94742.17
2019-05-21T15:42:40.228Z,94751.19
2019-05-21T15:45:12.565Z,94755.58
2019-05-21T15:47:43.776Z,94746.77
2019-05-21T15:50:16.033Z,94753.11
2019-05-21T15:52:47.228Z,94761.59
2019-05-21T15:55:18.600Z,94757.68
2019-05-21T15:57:49.871Z,94765.02
2019-05-21T16:00:23.576Z,94766.95
2019-05-21T16:02:54.689Z,94770.16
2019-05-21T16:05:25.978Z,94775.56
2019-05-21T16:07:57.088Z,94781.41
2019-05-21T16:10:28.366Z,94780.97
2019-05-21T16:12:59.578Z,94778.39
2019-05-21T16:15:30.700Z,94783.29
2019-05-21T16:18:02.024Z,94794.98
2019-05-21T16:20:33.229Z,94785.16
2019-05-21T16:23:04.469Z,94792.06
2019-05-21T16:25:36.981Z,94794.95
2019-05-21T16:28:08.445Z,94793.77
2019-05-21T16:30:39.604Z,94792.70
2019-05-21T16:33:10.864Z,94790.60
2019-05-21T16:35:41.960Z,94791.04
2019-05-21T16:38:13.303Z,94795.27
2019-05-21T16:40:44.569Z,94798.81
2019-05-21T16:43:15.872Z,94805.89
2019-05-21T16:45:47.177Z,94809.86
2019-05-21T16:48:18.512Z,94811.69
2019-05-21T16:50:49.746Z,94812.47
2019-05-21T16:53:21.294Z,94807.52
2019-05-21T16:55:52.426Z,94813.90
2019-05-21T16:58:23.585Z,94819.39
2019-05-21T17:00:54.911Z,94817.81
2019-05-21T17:03:26.073Z,94821.05
2019-05-21T17:05:57.157Z,94821.37
2019-05-21T17:08:29.781Z,94819.78
2019-05-21T17:11:00.928Z,94827.16
2019-05-21T17:13:32.160Z,94824.24
2019-05-21T17:16:03.372Z,94827.52
2019-05-21T17:18:34.655Z,94839.76
2019-05-21T17:21:05.832Z,94835.70
2019-05-21T17:23:37.038Z,94839.25
2019-05-21T17:26:08.414Z,94842.61
2019-05-21T17:28:39.747Z,94844.35
2019-05-21T17:31:11.002Z,94849.56
2019-05-21T17:33:42.163Z,94860.45
2019-05-21T17:36:13.368Z,94854.61
2019-05-21T17:38:44.551Z,94857.02
2019-05-21T17:41:15.810Z,94858.88
2019-05-21T17:43:46.991Z,94862.32
2019-05-21T17:46:18.141Z,94852.24
2019-05-21T17:48:49.376Z,94859.51
2019-05-21T17:51:20.398Z,94857.62
2019-05-21T17:53:51.845Z,94863.27
2019-05-21T17:56:22.893Z,94866.73
2019-05-21T17:58:54.114Z,94867.89
2019-05-21T18:01:26.369Z,94872.34
2019-05-21T18:03:57.488Z,94872.71
2019-05-21T18:06:28.998Z,94871.39
2019-05-21T18:09:00.995Z,94874.20
2019-05-21T18:11:34.363Z,94887.13
2019-05-21T18:14:06.163Z,94883.60
2019-05-21T18:16:37.512Z,94884.23
2019-05-21T18:19:09.129Z,94888.23
2019-05-21T18:21:40.812Z,94893.09
2019-05-21T18:24:12.168Z,94896.00
2019-05-21T18:26:43.283Z,94892.09
2019-05-21T18:29:14.628Z,94895.00
2019-05-21T18:31:45.925Z,94892.15
2019-05-21T18:34:17.485Z,94902.55
2019-05-21T18:36:48.625Z,94900.06
2019-05-21T18:39:21.183Z,94907.72
2019-05-21T18:41:52.650Z,94903.24
2019-05-21T18:44:23.864Z,94915.41
2019-05-21T18:46:56.273Z,94913.58
2019-05-21T18:49:27.916Z,94919.04
2019-05-21T18:51:59.148Z,94923.00
2019-05-21T18:54:30.487Z,94932.48
2019-05-21T18:57:01.589Z,94924.30
2019-05-21T18:59:33.249Z,94931.67
2019-05-21T19:02:05.919Z,94933.11
2019-05-21T19:04:37.031Z,94941.63
2019-05-21T19:07:10.808Z,94946.99
2019-05-21T19:09:41.377Z,94952.97
2019-05-21T19:12:12.668Z,94951.06
2019-05-21T19:14:44.939Z,94954.45
2019-05-21T19:17:16.546Z,94959.84
2019-05-21T19:19:47.769Z,94967.62
2019-05-21T19:22:18.951Z,94968.52
2019-05-21T19:24:50.213Z,94973.28
2019-05-21T19:27:21.373Z,94972.61
2019-05-21T19:29:52.568Z,94979.02
2019-05-21T19:32:23.886Z,94986.68
2019-05-21T19:34:55.411Z,94994.27
2019-05-21T19:37:26.549Z,94987.45
2019-05-21T19:39:57.700Z,94994.58
2019-05-21T19:42:28.815Z,94991.77
2019-05-21T19:44:59.881Z,94992.38
2019-05-21T19:47:31.091Z,94995.90
2019-05-21T19:50:02.285Z,94993.88
2019-05-21T19:52:33.603Z,94996.98
2019-05-21T19:55:04.994Z,94998.44
2019-05-21T19:57:36.989Z,94999.27
2019-05-21T20:00:08.737Z,94996.73
2019-05-21T20:02:40.953Z,94999.66
2019-05-21T20:05:12.852Z,95004.78
2019-05-21T20:07:44.542Z,95005.27
2019-05-21T20:10:17.242Z,95010.70
2019-05-21T20:12:48.544Z,95008.83
2019-05-21T20:15:19.807Z,95010.48
2019-05-21T20:18:05.133Z,95012.06
2019-05-21T20:20:27.705Z,95017.81
2019-05-21T20:22:59.253Z,95021.66
2019-05-21T20:25:31.248Z,95016.27
2019-05-21T20:28:02.974Z,95012.35
2019-05-21T20:30:35.222Z,95021.66
2019-05-21T20:33:07.595Z,95017.84
2019-05-21T20:35:39.310Z,95025.79
2019-05-21T20:38:12.248Z,95025.08
2019-05-21T20:40:43.398Z,95027.92
2019-05-21T20:43:14.960Z,95030.27
2019-05-21T20:45:48.641Z,95035.73
2019-05-21T20:48:21.683Z,95032.37
2019-05-21T20:50:54.087Z,95035.09
2019-05-21T20:53:25.909Z,95042.00
2019-05-21T20:55:57.904Z,95040.02
2019-05-21T20:58:29.383Z,95046.31
2019-05-21T21:01:02.323Z,95044.40
2019-05-21T21:03:33.783Z,95046.95
2019-05-21T21:06:06.431Z,95048.69
2019-05-21T21:08:37.699Z,95043.23
2019-05-21T21:11:11.089Z,95047.79
2019-05-21T21:13:44.703Z,95053.94
2019-05-21T21:16:16.501Z,95050.38
2019-05-21T21:18:48.092Z,95052.68
2019-05-21T21:21:19.552Z,95053.29
2019-05-21T21:23:52.318Z,95061.58
2019-05-21T21:26:24.318Z,95056.08
2019-05-21T21:28:55.562Z,95053.45
2019-05-21T21:31:26.807Z,95058.65
2019-05-21T21:33:58.754Z,95064.91
2019-05-21T21:36:30.682Z,95061.45
2019-05-21T21:39:01.839Z,95064.86
2019-05-21T21:41:35.078Z,95058.65
2019-05-21T21:44:06.893Z,95061.86
2019-05-21T21:46:39.188Z,95063.81
2019-05-21T21:49:13.226Z,95065.22
2019-05-21T21:51:45.157Z,95061.41
2019-05-21T21:54:16.689Z,95067.17
2019-05-21T21:56:48.160Z,95068.03
2019-05-21T21:59:19.344Z,95070.66
2019-05-21T22:01:59.795Z,95063.97
2019-05-21T22:04:37.009Z,95068.55
2019-05-21T22:07:08.222Z,95071.53
2019-05-21T22:09:40.190Z,95068.41
2019-05-21T22:12:16.876Z,95071.25
2019-05-21T22:14:55.530Z,95074.56
2019-05-21T22:17:27.113Z,95065.27
2019-05-21T22:19:58.577Z,95070.70
2019-05-21T22:22:29.967Z,95068.83
2019-05-21T22:25:02.113Z,95069.92
2019-05-21T22:27:34.958Z,95070.98
2019-05-21T22:30:07.970Z,95073.22
2019-05-21T22:32:39.118Z,95075.91
2019-05-21T22:35:10.403Z,95074.45
2019-05-21T22:37:41.534Z,95079.05
2019-05-21T22:40:13.152Z,95073.02
2019-05-21T22:42:44.390Z,95084.59
2019-05-21T22:45:15.641Z,95077.44
2019-05-21T22:47:46.827Z,95086.56
2019-05-21T22:50:18.685Z,95080.41
2019-05-21T22:52:49.887Z,95081.97
2019-05-21T22:55:21.186Z,95084.86
2019-05-21T22:57:52.307Z,95092.02
2019-05-21T23:00:23.696Z,95090.58
2019-05-21T23:02:55.468Z,95089.67
2019-05-21T23:05:26.805Z,95095.70
2019-05-21T23:07:58.800Z,95092.77
2019-05-21T23:10:30.210Z,95091.11
2019-05-21T23:13:01.794Z,95086.77
2019-05-21T23:15:33.234Z,95089.39
2019-05-21T23:18:12.166Z,95090.70
2019-05-21T23:21:03.379Z,95088.31
2019-05-21T23:23:37.479Z,95090.92
2019-05-21T23:26:10.029Z,95091.05
2019-05-21T23:28:42.301Z,95094.50
2019-05-21T23:31:15.105Z,95097.23
2019-05-21T23:33:48.375Z,95092.67
2019-05-21T23:36:19.712Z,95094.23
2019-05-21T23:38:51.455Z,95091.02
2019-05-21T23:41:24.253Z,95092.98
2019-05-21T23:43:55.523Z,95095.70
2019-05-21T23:46:26.708Z,95093.37
2019-05-21T23:48:58.410Z,95095.61
2019-05-21T23:51:29.661Z,95094.13
2019-05-21T23:54:01.039Z,95086.78
2019-05-21T23:56:32.392Z,95098.44
2019-05-21T23:59:03.612Z,95090.47
